sensor_id;sensor_type;location;lat;lon;timestamp;pressure;altitude;pressure_sealevel;temperature;humidity
28665;BME280;15850;47.524;7.814;2023-01-23T00:02:14;98528.47;;;-1.97;100.00
28665;BME280;15850;47.524;7.814;2023-01-23T00:04:41;98759.66;;;-0.35;100.00
28665;BME280;15850;47.524;7.814;2023-01-23T00:07:06;98764.34;;;-0.42;100.00
28665;BME280;15850;47.524;7.814;2023-01-23T00:09:32;98585.41;;;-1.51;100.00
28665;BME280;15850;47.524;7.814;2023-01-23T00:11:57;98746.44;;;-0.41;100.00
28665;BME280;15850;47.524;7.814;2023-01-23T00:14:23;98677.72;;;-0.86;100.00
28665;BME280;15850;47.524;7.814;2023-01-23T00:16:48;98552.59;;;-1.63;100.00
28665;BME280;15850;47.524;7.814;2023-01-23T00:19:14;98677.56;;;-1.08;100.00
28665;BME280;15850;47.524;7.814;2023-01-23T00:21:41;98766.88;;;-0.35;100.00
28665;BME280;15850;47.524;7.814;2023-01-23T00:24:09;98745.22;;;-0.34;100.00
28665;BME280;15850;47.524;7.814;2023-01-23T00:26:36;98718.47;;;-0.51;100.00
28665;BME280;15850;47.524;7.814;2023-01-23T00:29:02;98741.59;;;-0.28;100.00
28665;BME280;15850;47.524;7.814;2023-01-23T00:31:30;98742.56;;;-0.34;100.00
28665;BME280;15850;47.524;7.814;2023-01-23T00:33:57;98736.56;;;-0.41;100.00
28665;BME280;15850;47.524;7.814;2023-01-23T00:36:27;98739.97;;;-0.45;100.00
28665;BME280;15850;47.524;7.814;2023-01-23T00:38:55;98739.47;;;-0.42;100.00
28665;BME280;15850;47.524;7.814;2023-01-23T00:41:21;98690.41;;;-0.65;100.00
28665;BME280;15850;47.524;7.814;2023-01-23T00:43:46;98645.78;;;-0.93;100.00
28665;BME280;15850;47.524;7.814;2023-01-23T00:46:12;98733.81;;;-0.46;100.00
28665;BME280;15850;47.524;7.814;2023-01-23T00:48:38;98717.88;;;-0.69;100.00
28665;BME280;15850;47.524;7.814;2023-01-23T00:51:04;98737.44;;;-0.52;100.00
28665;BME280;15850;47.524;7.814;2023-01-23T00:53:30;98737.72;;;-0.65;100.00
28665;BME280;15850;47.524;7.814;2023-01-23T00:55:57;98741.63;;;-0.56;100.00
28665;BME280;15850;47.524;7.814;2023-01-23T00:58:22;98735.13;;;-0.60;100.00
28665;BME280;15850;47.524;7.814;2023-01-23T01:00:48;98539.34;;;-1.87;100.00
28665;BME280;15850;47.524;7.814;2023-01-23T01:03:14;98740.00;;;-0.57;100.00
28665;BME280;15850;47.524;7.814;2023-01-23T01:05:40;98739.38;;;-0.48;100.00
28665;BME280;15850;47.524;7.814;2023-01-23T01:08:06;98739.63;;;-0.49;100.00
28665;BME280;15850;47.524;7.814;2023-01-23T01:10:32;98738.41;;;-0.41;100.00
28665;BME280;15850;47.524;7.814;2023-01-23T01:13:01;98520.91;;;-1.88;100.00
28665;BME280;15850;47.524;7.814;2023-01-23T01:15:27;98345.00;;;-3.04;100.00
28665;BME280;15850;47.524;7.814;2023-01-23T01:17:55;98648.28;;;-1.03;100.00
28665;BME280;15850;47.524;7.814;2023-01-23T01:20:20;98753.03;;;-0.32;100.00
28665;BME280;15850;47.524;7.814;2023-01-23T01:22:46;98755.84;;;-0.39;100.00
28665;BME280;15850;47.524;7.814;2023-01-23T01:25:11;98748.53;;;-0.43;100.00
28665;BME280;15850;47.524;7.814;2023-01-23T01:27:37;98752.13;;;-0.38;100.00
28665;BME280;15850;47.524;7.814;2023-01-23T01:30:05;98712.84;;;-0.66;100.00
28665;BME280;15850;47.524;7.814;2023-01-23T01:32:35;98702.69;;;-0.81;100.00
28665;BME280;15850;47.524;7.814;2023-01-23T01:35:00;98710.88;;;-0.71;100.00
28665;BME280;15850;47.524;7.814;2023-01-23T01:37:26;98713.03;;;-0.84;100.00
28665;BME280;15850;47.524;7.814;2023-01-23T01:39:51;98633.59;;;-1.17;100.00
28665;BME280;15850;47.524;7.814;2023-01-23T01:42:17;98590.09;;;-1.70;100.00
28665;BME280;15850;47.524;7.814;2023-01-23T01:44:53;98719.03;;;-0.77;100.00
28665;BME280;15850;47.524;7.814;2023-01-23T01:47:20;98773.13;;;-0.58;100.00
28665;BME280;15850;47.524;7.814;2023-01-23T01:49:46;98772.25;;;-0.47;100.00
28665;BME280;15850;47.524;7.814;2023-01-23T01:52:13;98764.34;;;-0.42;100.00
28665;BME280;15850;47.524;7.814;2023-01-23T01:54:42;98759.81;;;-0.41;100.00
28665;BME280;15850;47.524;7.814;2023-01-23T01:57:13;98760.22;;;-0.50;100.00
28665;BME280;15850;47.524;7.814;2023-01-23T01:59:44;98754.13;;;-0.45;100.00
28665;BME280;15850;47.524;7.814;2023-01-23T02:02:15;98750.88;;;-0.47;100.00
28665;BME280;15850;47.524;7.814;2023-01-23T02:04:47;98757.88;;;-0.46;100.00
28665;BME280;15850;47.524;7.814;2023-01-23T02:07:17;98619.13;;;-1.33;100.00
28665;BME280;15850;47.524;7.814;2023-01-23T02:09:45;98755.66;;;-0.49;100.00
28665;BME280;15850;47.524;7.814;2023-01-23T02:12:11;98759.63;;;-0.52;100.00
28665;BME280;15850;47.524;7.814;2023-01-23T02:14:38;98757.69;;;-0.56;100.00
28665;BME280;15850;47.524;7.814;2023-01-23T02:17:04;98555.19;;;-1.69;100.00
28665;BME280;15850;47.524;7.814;2023-01-23T02:19:37;98756.91;;;-0.68;100.00
28665;BME280;15850;47.524;7.814;2023-01-23T02:22:15;98708.09;;;-1.04;100.00
28665;BME280;15850;47.524;7.814;2023-01-23T02:24:49;98766.72;;;-0.57;100.00
28665;BME280;15850;47.524;7.814;2023-01-23T02:27:21;98747.69;;;-0.61;100.00
28665;BME280;15850;47.524;7.814;2023-01-23T02:29:46;98750.69;;;-0.57;100.00
28665;BME280;15850;47.524;7.814;2023-01-23T02:32:12;98756.13;;;-0.52;100.00
28665;BME280;15850;47.524;7.814;2023-01-23T02:34:39;98702.34;;;-0.84;100.00
28665;BME280;15850;47.524;7.814;2023-01-23T02:37:06;98341.41;;;-3.10;100.00
28665;BME280;15850;47.524;7.814;2023-01-23T02:39:32;98700.59;;;-0.79;100.00
28665;BME280;15850;47.524;7.814;2023-01-23T02:42:00;98718.09;;;-0.71;100.00
28665;BME280;15850;47.524;7.814;2023-01-23T02:44:41;98745.44;;;-0.52;100.00
28665;BME280;15850;47.524;7.814;2023-01-23T02:47:07;98739.16;;;-0.46;100.00
28665;BME280;15850;47.524;7.814;2023-01-23T02:49:33;98740.03;;;-0.40;100.00
28665;BME280;15850;47.524;7.814;2023-01-23T02:52:01;98722.41;;;-0.53;100.00
28665;BME280;15850;47.524;7.814;2023-01-23T02:54:27;98694.63;;;-0.69;100.00
28665;BME280;15850;47.524;7.814;2023-01-23T02:56:52;98743.50;;;-0.40;100.00
28665;BME280;15850;47.524;7.814;2023-01-23T02:59:20;98633.72;;;-1.12;100.00
28665;BME280;15850;47.524;7.814;2023-01-23T03:01:47;98609.38;;;-1.28;100.00
28665;BME280;15850;47.524;7.814;2023-01-23T03:04:13;98654.38;;;-1.20;100.00
28665;BME280;15850;47.524;7.814;2023-01-23T03:06:39;98742.00;;;-0.64;100.00
28665;BME280;15850;47.524;7.814;2023-01-23T03:09:08;98658.88;;;-1.08;100.00
28665;BME280;15850;47.524;7.814;2023-01-23T03:11:35;98738.84;;;-0.61;100.00
28665;BME280;15850;47.524;7.814;2023-01-23T03:14:03;98740.00;;;-0.57;100.00
28665;BME280;15850;47.524;7.814;2023-01-23T03:16:29;98741.63;;;-0.56;100.00
28665;BME280;15850;47.524;7.814;2023-01-23T03:18:55;98746.00;;;-0.50;100.00
28665;BME280;15850;47.524;7.814;2023-01-23T03:21:21;98748.72;;;-0.33;100.00
28665;BME280;15850;47.524;7.814;2023-01-23T03:23:47;98646.81;;;-1.23;100.00
28665;BME280;15850;47.524;7.814;2023-01-23T03:26:13;98750.97;;;-0.71;100.00
28665;BME280;15850;47.524;7.814;2023-01-23T03:28:38;98740.63;;;-0.67;100.00
28665;BME280;15850;47.524;7.814;2023-01-23T03:31:04;98748.59;;;-0.55;100.00
28665;BME280;15850;47.524;7.814;2023-01-23T03:33:30;98746.47;;;-0.53;100.00
28665;BME280;15850;47.524;7.814;2023-01-23T03:35:57;98738.19;;;-0.68;100.00
28665;BME280;15850;47.524;7.814;2023-01-23T03:38:23;98686.31;;;-0.84;100.00
28665;BME280;15850;47.524;7.814;2023-01-23T03:40:49;98700.19;;;-0.71;100.00
28665;BME280;15850;47.524;7.814;2023-01-23T03:43:16;98333.66;;;-3.23;100.00
28665;BME280;15850;47.524;7.814;2023-01-23T03:45:46;98602.09;;;-1.32;100.00
28665;BME280;15850;47.524;7.814;2023-01-23T03:48:12;98691.28;;;-0.76;100.00
28665;BME280;15850;47.524;7.814;2023-01-23T03:50:38;98747.13;;;-0.63;100.00
28665;BME280;15850;47.524;7.814;2023-01-23T03:53:05;98607.78;;;-1.40;100.00
28665;BME280;15850;47.524;7.814;2023-01-23T03:55:30;98745.59;;;-0.59;100.00
28665;BME280;15850;47.524;7.814;2023-01-23T03:57:56;98750.41;;;-0.73;100.00
28665;BME280;15850;47.524;7.814;2023-01-23T04:00:27;98753.84;;;-0.60;100.00
28665;BME280;15850;47.524;7.814;2023-01-23T04:02:59;98743.16;;;-0.60;100.00
28665;BME280;15850;47.524;7.814;2023-01-23T04:05:26;98754.03;;;-0.50;100.00
28665;BME280;15850;47.524;7.814;2023-01-23T04:07:52;98726.44;;;-0.67;100.00
28665;BME280;15850;47.524;7.814;2023-01-23T04:10:19;98750.78;;;-0.52;100.00
28665;BME280;15850;47.524;7.814;2023-01-23T04:12:49;98757.75;;;-0.51;100.00
28665;BME280;15850;47.524;7.814;2023-01-23T04:15:14;98621.56;;;-1.32;100.00
28665;BME280;15850;47.524;7.814;2023-01-23T04:17:40;98764.63;;;-0.55;100.00
28665;BME280;15850;47.524;7.814;2023-01-23T04:20:07;98768.22;;;-0.50;100.00
28665;BME280;15850;47.524;7.814;2023-01-23T04:22:33;98757.63;;;-0.44;100.00
28665;BME280;15850;47.524;7.814;2023-01-23T04:24:59;98766.63;;;-0.34;100.00
28665;BME280;15850;47.524;7.814;2023-01-23T04:27:26;98758.91;;;-0.76;100.00
28665;BME280;15850;47.524;7.814;2023-01-23T04:29:53;98732.59;;;-0.96;100.00
28665;BME280;15850;47.524;7.814;2023-01-23T04:32:19;98751.28;;;-0.96;100.00
28665;BME280;15850;47.524;7.814;2023-01-23T04:34:46;98751.97;;;-1.00;100.00
28665;BME280;15850;47.524;7.814;2023-01-23T04:37:11;98713.84;;;-1.24;100.00
28665;BME280;15850;47.524;7.814;2023-01-23T04:39:38;98742.88;;;-0.87;100.00
28665;BME280;15850;47.524;7.814;2023-01-23T04:42:03;98751.34;;;-0.79;100.00
28665;BME280;15850;47.524;7.814;2023-01-23T04:44:47;98749.06;;;-0.58;100.00
28665;BME280;15850;47.524;7.814;2023-01-23T04:47:48;98749.13;;;-0.41;100.00
28665;BME280;15850;47.524;7.814;2023-01-23T04:50:14;98545.88;;;-1.54;100.00
28665;BME280;15850;47.524;7.814;2023-01-23T04:52:44;98649.78;;;-0.96;100.00
28665;BME280;15850;47.524;7.814;2023-01-23T04:55:09;98747.06;;;-0.51;100.00
28665;BME280;15850;47.524;7.814;2023-01-23T04:57:35;98755.16;;;-0.75;100.00
28665;BME280;15850;47.524;7.814;2023-01-23T05:00:14;98758.13;;;-0.88;100.00
28665;BME280;15850;47.524;7.814;2023-01-23T05:02:40;98754.03;;;-0.79;100.00
28665;BME280;15850;47.524;7.814;2023-01-23T05:05:07;98713.44;;;-1.04;100.00
28665;BME280;15850;47.524;7.814;2023-01-23T05:07:32;98746.84;;;-0.50;100.00
28665;BME280;15850;47.524;7.814;2023-01-23T05:10:05;98746.00;;;-0.50;100.00
28665;BME280;15850;47.524;7.814;2023-01-23T05:12:31;98752.06;;;-0.26;100.00
28665;BME280;15850;47.524;7.814;2023-01-23T05:14:58;98743.66;;;-0.18;97.84
28665;BME280;15850;47.524;7.814;2023-01-23T05:17:25;98748.41;;;-0.20;95.95
28665;BME280;15850;47.524;7.814;2023-01-23T05:19:52;98674.81;;;-0.85;95.31
28665;BME280;15850;47.524;7.814;2023-01-23T05:22:18;98736.63;;;-0.53;92.49
28665;BME280;15850;47.524;7.814;2023-01-23T05:24:44;98682.91;;;-0.80;90.05
28665;BME280;15850;47.524;7.814;2023-01-23T05:27:10;98747.09;;;-0.34;88.47
28665;BME280;15850;47.524;7.814;2023-01-23T05:29:39;98731.59;;;-0.49;89.07
28665;BME280;15850;47.524;7.814;2023-01-23T05:32:10;98743.16;;;-0.60;89.26
28665;BME280;15850;47.524;7.814;2023-01-23T05:34:37;98746.63;;;-0.60;87.11
28665;BME280;15850;47.524;7.814;2023-01-23T05:37:11;98753.41;;;-0.69;89.31
28665;BME280;15850;47.524;7.814;2023-01-23T05:39:38;98753.69;;;-0.82;89.74
28665;BME280;15850;47.524;7.814;2023-01-23T05:42:04;98754.75;;;-0.95;87.39
28665;BME280;15850;47.524;7.814;2023-01-23T05:44:58;98757.53;;;-0.90;88.47
28665;BME280;15850;47.524;7.814;2023-01-23T05:47:37;98674.69;;;-1.19;82.73
28665;BME280;15850;47.524;7.814;2023-01-23T05:50:07;98758.63;;;-0.62;82.08
28665;BME280;15850;47.524;7.814;2023-01-23T05:52:35;98763.03;;;-0.56;81.12
28665;BME280;15850;47.524;7.814;2023-01-23T05:55:01;98760.50;;;-0.75;84.44
28665;BME280;15850;47.524;7.814;2023-01-23T05:57:27;98697.44;;;-1.16;83.76
28665;BME280;15850;47.524;7.814;2023-01-23T05:59:55;98770.53;;;-0.82;85.66
28665;BME280;15850;47.524;7.814;2023-01-23T06:02:39;98750.56;;;-0.91;87.05
28665;BME280;15850;47.524;7.814;2023-01-23T06:05:44;98644.69;;;-1.37;82.90
28665;BME280;15850;47.524;7.814;2023-01-23T06:08:15;98776.13;;;-0.55;84.18
28665;BME280;15850;47.524;7.814;2023-01-23T06:10:41;98786.84;;;-0.66;82.28
28665;BME280;15850;47.524;7.814;2023-01-23T06:13:07;98636.81;;;-1.56;82.39
28665;BME280;15850;47.524;7.814;2023-01-23T06:15:35;98716.69;;;-1.02;81.36
28665;BME280;15850;47.524;7.814;2023-01-23T06:18:04;98559.19;;;-2.06;79.63
28665;BME280;15850;47.524;7.814;2023-01-23T06:20:30;98795.56;;;-0.59;80.00
28665;BME280;15850;47.524;7.814;2023-01-23T06:22:57;98556.19;;;-2.10;80.56
28665;BME280;15850;47.524;7.814;2023-01-23T06:25:25;98499.75;;;-2.30;78.71
28665;BME280;15850;47.524;7.814;2023-01-23T06:27:52;98724.09;;;-0.92;79.83
28665;BME280;15850;47.524;7.814;2023-01-23T06:30:18;98717.28;;;-1.12;83.68
28665;BME280;15850;47.524;7.814;2023-01-23T06:32:45;98736.00;;;-0.83;80.70
28665;BME280;15850;47.524;7.814;2023-01-23T06:35:14;98806.03;;;-0.29;78.05
28665;BME280;15850;47.524;7.814;2023-01-23T06:37:41;98769.53;;;-0.64;80.24
28665;BME280;15850;47.524;7.814;2023-01-23T06:40:11;98759.75;;;-0.58;78.18
28665;BME280;15850;47.524;7.814;2023-01-23T06:42:38;98553.72;;;-1.88;76.54
28665;BME280;15850;47.524;7.814;2023-01-23T06:45:04;98725.44;;;-0.78;77.11
28665;BME280;15850;47.524;7.814;2023-01-23T06:47:31;98799.97;;;-0.25;81.74
28665;BME280;15850;47.524;7.814;2023-01-23T06:49:59;98803.44;;;-0.24;78.98
28665;BME280;15850;47.524;7.814;2023-01-23T06:52:27;98667.78;;;-1.03;80.05
28665;BME280;15850;47.524;7.814;2023-01-23T06:54:53;98804.84;;;-0.21;78.06
28665;BME280;15850;47.524;7.814;2023-01-23T06:57:21;98801.97;;;-0.32;81.49
28665;BME280;15850;47.524;7.814;2023-01-23T06:59:48;98802.63;;;-0.25;78.62
28665;BME280;15850;47.524;7.814;2023-01-23T07:02:16;98764.44;;;-0.65;79.38
28665;BME280;15850;47.524;7.814;2023-01-23T07:04:44;98829.31;;;-0.30;80.61
28665;BME280;15850;47.524;7.814;2023-01-23T07:07:11;98638.66;;;-1.45;80.74
28665;BME280;15850;47.524;7.814;2023-01-23T07:09:37;98822.63;;;-0.27;80.06
28665;BME280;15850;47.524;7.814;2023-01-23T07:12:10;98751.69;;;-0.75;83.23
28665;BME280;15850;47.524;7.814;2023-01-23T07:14:39;98785.81;;;-0.65;82.14
28665;BME280;15850;47.524;7.814;2023-01-23T07:17:06;98702.28;;;-1.01;82.79
28665;BME280;15850;47.524;7.814;2023-01-23T07:19:33;98598.00;;;-1.75;82.66
28665;BME280;15850;47.524;7.814;2023-01-23T07:22:02;98769.66;;;-0.59;82.56
28665;BME280;15850;47.524;7.814;2023-01-23T07:24:28;98800.88;;;-0.48;84.45
28665;BME280;15850;47.524;7.814;2023-01-23T07:26:53;98499.88;;;-2.49;85.09
28665;BME280;15850;47.524;7.814;2023-01-23T07:29:19;98587.38;;;-2.10;87.58
28665;BME280;15850;47.524;7.814;2023-01-23T07:31:45;98690.94;;;-1.20;84.38
28665;BME280;15850;47.524;7.814;2023-01-23T07:34:11;98705.19;;;-1.03;83.68
28665;BME280;15850;47.524;7.814;2023-01-23T07:36:37;98751.34;;;-0.79;86.46
28665;BME280;15850;47.524;7.814;2023-01-23T07:39:02;98537.84;;;-1.95;86.44
28665;BME280;15850;47.524;7.814;2023-01-23T07:41:28;98823.94;;;-0.30;85.65
28665;BME280;15850;47.524;7.814;2023-01-23T07:43:53;98770.69;;;-0.60;85.13
28665;BME280;15850;47.524;7.814;2023-01-23T07:46:19;98826.19;;;-0.10;84.61
28665;BME280;15850;47.524;7.814;2023-01-23T07:48:46;98829.16;;;-0.23;87.02
28665;BME280;15850;47.524;7.814;2023-01-23T07:51:11;98774.81;;;-0.81;85.25
28665;BME280;15850;47.524;7.814;2023-01-23T07:53:37;98781.44;;;-0.83;89.50
28665;BME280;15850;47.524;7.814;2023-01-23T07:56:03;98778.84;;;-0.66;88.07
28665;BME280;15850;47.524;7.814;2023-01-23T07:58:29;98726.38;;;-0.84;89.35
28665;BME280;15850;47.524;7.814;2023-01-23T08:00:54;98568.09;;;-1.89;89.28
28665;BME280;15850;47.524;7.814;2023-01-23T08:03:20;98735.59;;;-0.92;90.61
28665;BME280;15850;47.524;7.814;2023-01-23T08:05:48;98900.44;;;-0.29;90.84
28665;BME280;15850;47.524;7.814;2023-01-23T08:08:14;98842.28;;;-0.21;89.41
28665;BME280;15850;47.524;7.814;2023-01-23T08:10:40;98844.00;;;-0.15;89.02
28665;BME280;15850;47.524;7.814;2023-01-23T08:13:06;98810.59;;;-0.30;88.46
28665;BME280;15850;47.524;7.814;2023-01-23T08:15:31;98734.81;;;-1.04;90.02
28665;BME280;15850;47.524;7.814;2023-01-23T08:17:57;98870.88;;;-0.22;87.75
28665;BME280;15850;47.524;7.814;2023-01-23T08:20:22;98845.34;;;-0.30;89.50
28665;BME280;15850;47.524;7.814;2023-01-23T08:22:49;98839.22;;;-0.13;85.76
28665;BME280;15850;47.524;7.814;2023-01-23T08:25:15;98729.06;;;-0.96;87.33
28665;BME280;15850;47.524;7.814;2023-01-23T08:27:41;98750.78;;;-0.81;89.12
28665;BME280;15850;47.524;7.814;2023-01-23T08:30:07;98843.81;;;-0.26;90.06
28665;BME280;15850;47.524;7.814;2023-01-23T08:32:33;98681.47;;;-1.39;89.94
28665;BME280;15850;47.524;7.814;2023-01-23T08:34:59;98760.56;;;-0.98;87.89
28665;BME280;15850;47.524;7.814;2023-01-23T08:37:24;98843.38;;;-0.34;87.73
28665;BME280;15850;47.524;7.814;2023-01-23T08:39:51;98321.72;;;-3.68;88.60
28665;BME280;15850;47.524;7.814;2023-01-23T08:42:17;98838.47;;;-0.26;86.94
28665;BME280;15850;47.524;7.814;2023-01-23T08:44:42;98737.00;;;-1.01;89.03
28665;BME280;15850;47.524;7.814;2023-01-23T08:47:08;98824.44;;;-0.44;90.47
28665;BME280;15850;47.524;7.814;2023-01-23T08:49:33;98547.50;;;-2.52;87.86
28665;BME280;15850;47.524;7.814;2023-01-23T08:51:59;98842.03;;;-0.60;89.58
28665;BME280;15850;47.524;7.814;2023-01-23T08:54:24;98788.84;;;-0.74;91.49
28665;BME280;15850;47.524;7.814;2023-01-23T08:56:51;98745.22;;;-0.91;88.32
28665;BME280;15850;47.524;7.814;2023-01-23T08:59:17;98853.59;;;-0.31;86.91
28665;BME280;15850;47.524;7.814;2023-01-23T09:01:42;98851.38;;;-0.34;86.07
28665;BME280;15850;47.524;7.814;2023-01-23T09:04:08;98817.34;;;-0.39;86.08
28665;BME280;15850;47.524;7.814;2023-01-23T09:06:35;98768.13;;;-0.95;88.82
28665;BME280;15850;47.524;7.814;2023-01-23T09:09:00;98676.84;;;-1.44;89.54
28665;BME280;15850;47.524;7.814;2023-01-23T09:11:26;98811.53;;;-0.36;86.42
28665;BME280;15850;47.524;7.814;2023-01-23T09:13:53;98757.28;;;-0.48;87.51
28665;BME280;15850;47.524;7.814;2023-01-23T09:16:18;98805.16;;;0.28;83.53
28665;BME280;15850;47.524;7.814;2023-01-23T09:18:44;98809.94;;;0.26;83.64
28665;BME280;15850;47.524;7.814;2023-01-23T09:21:11;98803.63;;;0.32;83.57
28665;BME280;15850;47.524;7.814;2023-01-23T09:23:38;98801.25;;;0.35;78.96
28665;BME280;15850;47.524;7.814;2023-01-23T09:26:06;98728.91;;;-0.04;80.94
28665;BME280;15850;47.524;7.814;2023-01-23T09:28:31;98797.63;;;0.41;81.60
28665;BME280;15850;47.524;7.814;2023-01-23T09:31:03;98778.72;;;0.31;79.45
28665;BME280;15850;47.524;7.814;2023-01-23T09:33:29;98721.41;;;-0.35;81.18
28665;BME280;15850;47.524;7.814;2023-01-23T09:35:54;98815.28;;;0.26;80.98
28665;BME280;15850;47.524;7.814;2023-01-23T09:38:20;98816.56;;;0.23;83.01
28665;BME280;15850;47.524;7.814;2023-01-23T09:40:48;98723.38;;;0.03;81.91
28665;BME280;15850;47.524;7.814;2023-01-23T09:43:17;98804.19;;;0.67;82.31
28665;BME280;15850;47.524;7.814;2023-01-23T09:45:56;98733.34;;;0.58;80.27
28665;BME280;15850;47.524;7.814;2023-01-23T09:48:27;98801.53;;;1.06;80.26
28665;BME280;15850;47.524;7.814;2023-01-23T09:50:56;98809.97;;;0.98;80.31
28665;BME280;15850;47.524;7.814;2023-01-23T09:53:34;98792.56;;;0.45;82.00
28665;BME280;15850;47.524;7.814;2023-01-23T09:56:03;98526.81;;;-0.84;78.08
28665;BME280;15850;47.524;7.814;2023-01-23T09:58:33;98784.00;;;0.82;78.72
28665;BME280;15850;47.524;7.814;2023-01-23T10:01:02;98725.00;;;0.38;79.76
28665;BME280;15850;47.524;7.814;2023-01-23T10:03:31;98723.03;;;0.67;77.21
28665;BME280;15850;47.524;7.814;2023-01-23T10:06:05;98638.78;;;-0.03;76.66
28665;BME280;15850;47.524;7.814;2023-01-23T10:08:37;98787.97;;;0.96;78.05
28665;BME280;15850;47.524;7.814;2023-01-23T10:11:13;98721.13;;;0.29;78.91
28665;BME280;15850;47.524;7.814;2023-01-23T10:13:46;98783.72;;;0.61;81.12
28665;BME280;15850;47.524;7.814;2023-01-23T10:16:26;98779.94;;;0.57;82.86
28665;BME280;15850;47.524;7.814;2023-01-23T10:19:06;98064.22;;;-3.99;81.58
28665;BME280;15850;47.524;7.814;2023-01-23T10:21:43;98795.34;;;0.67;81.94
28665;BME280;15850;47.524;7.814;2023-01-23T10:24:27;98585.88;;;-0.68;84.10
28665;BME280;15850;47.524;7.814;2023-01-23T10:26:59;98611.38;;;-0.44;81.56
28665;BME280;15850;47.524;7.814;2023-01-23T10:29:29;98671.75;;;0.03;79.80
28665;BME280;15850;47.524;7.814;2023-01-23T10:31:57;98335.75;;;-2.21;81.68
28665;BME280;15850;47.524;7.814;2023-01-23T10:34:28;98605.94;;;-0.15;80.65
28665;BME280;15850;47.524;7.814;2023-01-23T10:37:04;98775.53;;;0.68;81.77
28665;BME280;15850;47.524;7.814;2023-01-23T10:39:40;98811.63;;;0.65;81.88
28665;BME280;15850;47.524;7.814;2023-01-23T10:42:10;98654.97;;;-0.27;82.30
28665;BME280;15850;47.524;7.814;2023-01-23T10:44:36;98750.25;;;0.25;84.93
28665;BME280;15850;47.524;7.814;2023-01-23T10:47:03;98779.13;;;0.40;84.25
28665;BME280;15850;47.524;7.814;2023-01-23T10:49:42;98772.06;;;0.34;86.01
28665;BME280;15850;47.524;7.814;2023-01-23T10:52:28;98777.31;;;0.29;85.98
28665;BME280;15850;47.524;7.814;2023-01-23T10:54:54;98756.81;;;0.01;85.35
28665;BME280;15850;47.524;7.814;2023-01-23T10:57:22;98775.41;;;0.24;88.16
28665;BME280;15850;47.524;7.814;2023-01-23T10:59:53;98331.00;;;-2.48;87.62
28665;BME280;15850;47.524;7.814;2023-01-23T11:02:21;98763.13;;;0.28;87.18
28665;BME280;15850;47.524;7.814;2023-01-23T11:04:52;98698.91;;;-0.06;86.47
28665;BME280;15850;47.524;7.814;2023-01-23T11:07:19;98769.88;;;0.47;87.98
28665;BME280;15850;47.524;7.814;2023-01-23T11:09:51;98689.19;;;-0.12;87.28
28665;BME280;15850;47.524;7.814;2023-01-23T11:12:19;98737.34;;;0.05;88.73
28665;BME280;15850;47.524;7.814;2023-01-23T11:14:46;98752.09;;;0.25;87.31
28665;BME280;15850;47.524;7.814;2023-01-23T11:17:19;98690.41;;;-0.19;88.46
28665;BME280;15850;47.524;7.814;2023-01-23T11:19:47;98470.69;;;-1.63;87.43
28665;BME280;15850;47.524;7.814;2023-01-23T11:22:27;98362.28;;;-2.15;87.70
28665;BME280;15850;47.524;7.814;2023-01-23T11:24:53;98601.31;;;-0.37;90.47
28665;BME280;15850;47.524;7.814;2023-01-23T11:27:20;98741.72;;;0.45;89.43
28665;BME280;15850;47.524;7.814;2023-01-23T11:30:17;98604.25;;;-0.38;88.03
28665;BME280;15850;47.524;7.814;2023-01-23T11:32:51;98634.63;;;-0.28;87.64
28665;BME280;15850;47.524;7.814;2023-01-23T11:35:21;98516.28;;;-1.07;90.08
28665;BME280;15850;47.524;7.814;2023-01-23T11:37:52;98726.91;;;0.59;88.01
28665;BME280;15850;47.524;7.814;2023-01-23T11:40:20;98606.31;;;-0.07;86.77
28665;BME280;15850;47.524;7.814;2023-01-23T11:42:46;98752.72;;;0.65;87.51
28665;BME280;15850;47.524;7.814;2023-01-23T11:45:13;98726.56;;;0.73;85.67
28665;BME280;15850;47.524;7.814;2023-01-23T11:47:59;98694.16;;;0.52;86.51
28665;BME280;15850;47.524;7.814;2023-01-23T11:50:36;98726.38;;;0.57;85.86
28665;BME280;15850;47.524;7.814;2023-01-23T11:53:18;98531.81;;;-0.37;85.21
28665;BME280;15850;47.524;7.814;2023-01-23T11:55:54;98515.97;;;-0.60;86.95
28665;BME280;15850;47.524;7.814;2023-01-23T11:58:39;98370.81;;;-1.38;85.02
28665;BME280;15850;47.524;7.814;2023-01-23T12:01:12;98669.09;;;0.41;86.84
28665;BME280;15850;47.524;7.814;2023-01-23T12:04:08;98703.69;;;0.65;87.02
28665;BME280;15850;47.524;7.814;2023-01-23T12:07:09;98699.03;;;0.77;87.07
28665;BME280;15850;47.524;7.814;2023-01-23T12:09:47;98541.00;;;-0.33;89.09
28665;BME280;15850;47.524;7.814;2023-01-23T12:12:23;98592.38;;;0.08;87.85
28665;BME280;15850;47.524;7.814;2023-01-23T12:14:57;98689.56;;;0.69;88.18
28665;BME280;15850;47.524;7.814;2023-01-23T12:17:30;98401.38;;;-1.12;89.40
28665;BME280;15850;47.524;7.814;2023-01-23T12:20:21;98581.75;;;0.35;88.07
28665;BME280;15850;47.524;7.814;2023-01-23T12:22:58;98682.16;;;0.99;89.53
28665;BME280;15850;47.524;7.814;2023-01-23T12:25:33;98618.59;;;0.94;83.97
28665;BME280;15850;47.524;7.814;2023-01-23T12:28:04;98563.25;;;0.56;85.86
28665;BME280;15850;47.524;7.814;2023-01-23T12:30:59;98638.69;;;1.18;83.78
28665;BME280;15850;47.524;7.814;2023-01-23T12:33:47;98653.53;;;1.26;81.76
28665;BME280;15850;47.524;7.814;2023-01-23T12:36:23;98652.28;;;1.12;84.49
28665;BME280;15850;47.524;7.814;2023-01-23T12:39:03;98656.50;;;1.30;84.84
28665;BME280;15850;47.524;7.814;2023-01-23T12:41:35;98638.59;;;1.08;85.93
28665;BME280;15850;47.524;7.814;2023-01-23T12:44:07;98643.13;;;1.35;84.12
28665;BME280;15850;47.524;7.814;2023-01-23T12:46:39;98639.41;;;1.36;84.56
28665;BME280;15850;47.524;7.814;2023-01-23T12:49:17;98638.47;;;1.25;86.42
28665;BME280;15850;47.524;7.814;2023-01-23T12:51:47;98563.66;;;0.69;87.11
28665;BME280;15850;47.524;7.814;2023-01-23T12:54:17;98638.47;;;1.52;84.72
28665;BME280;15850;47.524;7.814;2023-01-23T12:56:49;98067.91;;;-2.19;85.98
28665;BME280;15850;47.524;7.814;2023-01-23T12:59:20;98555.97;;;0.73;87.91
28665;BME280;15850;47.524;7.814;2023-01-23T13:01:56;98546.00;;;0.96;86.28
28665;BME280;15850;47.524;7.814;2023-01-23T13:04:39;98634.56;;;1.65;82.93
28665;BME280;15850;47.524;7.814;2023-01-23T13:07:23;98606.28;;;1.52;81.41
28665;BME280;15850;47.524;7.814;2023-01-23T13:10:05;98624.06;;;1.31;86.59